createdAt,value
2018-12-15T00:00:09.289Z,3.00
2018-12-15T00:02:39.139Z,3.17
2018-12-15T00:05:08.982Z,2.83
2018-12-15T00:07:38.565Z,3.30
2018-12-15T00:10:08.544Z,3.13
2018-12-15T00:12:37.605Z,3.30
2018-12-15T00:15:08.639Z,3.10
2018-12-15T00:17:38.063Z,3.27
2018-12-15T00:20:08.172Z,2.97
2018-12-15T00:22:37.642Z,3.40
2018-12-15T00:25:06.946Z,3.37
2018-12-15T00:27:35.937Z,3.23
2018-12-15T00:30:06.402Z,3.20
2018-12-15T00:32:36.386Z,3.10
2018-12-15T00:35:06.315Z,3.10
2018-12-15T00:37:35.466Z,2.17
2018-12-15T00:40:05.389Z,2.43
2018-12-15T00:42:35.306Z,3.20
2018-12-15T00:45:04.814Z,2.60
2018-12-15T00:47:34.606Z,2.60
2018-12-15T00:50:04.544Z,2.40
2018-12-15T00:52:33.812Z,2.50
2018-12-15T00:55:03.008Z,2.80
2018-12-15T00:57:32.424Z,2.73
2018-12-15T01:00:01.860Z,2.77
2018-12-15T01:02:31.401Z,2.80
2018-12-15T01:05:00.795Z,2.70
2018-12-15T01:07:30.280Z,2.67
2018-12-15T01:09:59.582Z,2.87
2018-12-15T01:12:29.185Z,2.42
2018-12-15T01:14:58.232Z,2.50
2018-12-15T01:17:27.992Z,2.80
2018-12-15T01:19:57.359Z,3.00
2018-12-15T01:22:26.836Z,2.70
2018-12-15T01:24:56.129Z,2.87
2018-12-15T01:27:25.286Z,3.00
2018-12-15T01:29:55.006Z,2.58
2018-12-15T01:32:23.910Z,2.60
2018-12-15T01:34:53.519Z,2.60
2018-12-15T01:37:24.066Z,2.73
2018-12-15T01:39:53.723Z,2.53
2018-12-15T01:42:23.230Z,2.73
2018-12-15T01:44:52.810Z,2.50
2018-12-15T01:47:26.963Z,2.57
2018-12-15T01:49:54.012Z,2.30
2018-12-15T01:52:23.685Z,2.30
2018-12-15T01:54:52.990Z,2.63
2018-12-15T01:57:22.465Z,2.20
2018-12-15T01:59:51.753Z,2.40
2018-12-15T02:02:20.953Z,2.42
2018-12-15T02:04:50.768Z,2.70
2018-12-15T02:07:20.332Z,2.10
2018-12-15T02:09:49.708Z,2.27
2018-12-15T02:12:19.080Z,2.37
2018-12-15T02:14:48.393Z,2.10
2018-12-15T02:17:17.876Z,2.23
2018-12-15T02:19:47.338Z,2.20
2018-12-15T02:22:16.995Z,2.47
2018-12-15T02:24:46.604Z,2.50
2018-12-15T02:27:16.041Z,1.87
2018-12-15T02:29:46.089Z,2.03
2018-12-15T02:32:15.622Z,2.40
2018-12-15T02:34:45.022Z,2.37
2018-12-15T02:37:14.703Z,2.23
2018-12-15T02:39:43.837Z,2.20
2018-12-15T02:42:13.033Z,2.20
2018-12-15T02:44:42.158Z,1.93
2018-12-15T02:47:11.282Z,2.00
2018-12-15T02:49:40.629Z,2.07
2018-12-15T02:52:09.804Z,2.00
2018-12-15T02:54:39.148Z,2.43
2018-12-15T02:57:08.326Z,2.10
2018-12-15T02:59:37.443Z,2.30
2018-12-15T03:02:06.640Z,2.40
2018-12-15T03:04:35.615Z,2.30
2018-12-15T03:07:05.318Z,1.83
2018-12-15T03:09:34.647Z,2.00
2018-12-15T03:12:03.630Z,1.90
2018-12-15T03:14:32.603Z,1.90
2018-12-15T03:17:07.002Z,1.40
2018-12-15T03:19:36.313Z,1.60
2018-12-15T03:22:05.979Z,1.60
2018-12-15T03:24:35.164Z,1.70
2018-12-15T03:27:04.587Z,1.60
2018-12-15T03:29:33.691Z,1.40
2018-12-15T03:32:03.147Z,1.40
2018-12-15T03:34:32.162Z,1.50
2018-12-15T03:37:01.263Z,1.47
2018-12-15T03:39:30.694Z,1.73
2018-12-15T03:41:59.899Z,1.60
2018-12-15T03:44:29.210Z,1.90
2018-12-15T03:46:58.372Z,1.43
2018-12-15T03:49:27.834Z,2.00
2018-12-15T03:51:56.874Z,1.77
2018-12-15T03:54:26.008Z,1.70
2018-12-15T03:56:54.909Z,1.60
2018-12-15T03:59:24.206Z,1.90
2018-12-15T04:01:53.250Z,1.87
2018-12-15T04:04:22.579Z,1.30
2018-12-15T04:06:52.253Z,1.47
2018-12-15T04:09:21.628Z,1.50
2018-12-15T04:11:50.901Z,1.50
2018-12-15T04:14:20.198Z,1.50
2018-12-15T04:16:49.316Z,1.53
2018-12-15T04:19:18.455Z,1.77
2018-12-15T04:21:47.498Z,1.70
2018-12-15T04:24:16.764Z,1.50
2018-12-15T04:26:46.076Z,1.60
2018-12-15T04:29:15.294Z,1.30
2018-12-15T04:31:44.397Z,1.50
2018-12-15T04:34:13.412Z,1.57
2018-12-15T04:36:42.745Z,1.70
2018-12-15T04:39:11.826Z,1.60
2018-12-15T04:41:41.066Z,1.10
2018-12-15T04:44:10.312Z,1.45
2018-12-15T04:46:39.941Z,1.70
2018-12-15T04:49:09.254Z,1.60
2018-12-15T04:51:38.744Z,1.40
2018-12-15T04:54:07.943Z,1.50
2018-12-15T04:56:37.349Z,1.42
2018-12-15T04:59:06.823Z,1.37
2018-12-15T05:01:35.758Z,1.70
2018-12-15T05:04:05.099Z,1.50
2018-12-15T05:06:34.016Z,1.60
2018-12-15T05:09:04.161Z,1.40
2018-12-15T05:11:33.303Z,1.50
2018-12-15T05:14:02.333Z,1.57
2018-12-15T05:16:31.329Z,1.60
2018-12-15T05:19:00.662Z,1.73
2018-12-15T05:21:30.235Z,1.50
2018-12-15T05:23:59.947Z,1.80
2018-12-15T05:26:28.992Z,1.67
2018-12-15T05:28:58.006Z,1.60
2018-12-15T05:31:27.497Z,1.77
2018-12-15T05:33:56.792Z,1.43
2018-12-15T05:36:25.957Z,1.67
2018-12-15T05:38:54.890Z,1.60
2018-12-15T05:41:23.684Z,1.30
2018-12-15T05:43:52.820Z,1.70
2018-12-15T05:46:22.127Z,1.70
2018-12-15T05:48:51.003Z,1.60
2018-12-15T05:51:20.248Z,1.70
2018-12-15T05:53:49.444Z,1.70
2018-12-15T05:56:18.702Z,1.83
2018-12-15T05:58:49.014Z,1.80
2018-12-15T06:01:18.011Z,1.60
2018-12-15T06:03:47.110Z,1.63
2018-12-15T06:06:16.305Z,1.30
2018-12-15T06:08:45.440Z,1.30
2018-12-15T06:11:14.465Z,1.50
2018-12-15T06:13:43.775Z,1.70
2018-12-15T06:16:12.765Z,1.80
2018-12-15T06:18:41.898Z,1.43
2018-12-15T06:21:11.039Z,1.77
2018-12-15T06:23:40.818Z,1.40
2018-12-15T06:26:10.291Z,1.50
2018-12-15T06:28:39.531Z,1.60
2018-12-15T06:31:08.654Z,1.73
2018-12-15T06:33:37.634Z,2.07
2018-12-15T06:36:06.957Z,1.60
2018-12-15T06:38:36.432Z,1.50
2018-12-15T06:41:05.854Z,1.72
2018-12-15T06:43:35.107Z,1.60
2018-12-15T06:46:04.434Z,1.40
2018-12-15T06:48:38.202Z,1.67
2018-12-15T06:51:05.826Z,1.73
2018-12-15T06:53:34.987Z,1.42
2018-12-15T06:56:05.067Z,1.63
2018-12-15T06:58:34.055Z,1.60
2018-12-15T07:01:04.257Z,1.60
2018-12-15T07:03:33.861Z,1.30
2018-12-15T07:06:03.150Z,1.40
2018-12-15T07:08:32.154Z,1.60
2018-12-15T07:11:02.702Z,1.60
2018-12-15T07:13:31.799Z,1.50
2018-12-15T07:16:02.004Z,1.50
2018-12-15T07:18:32.515Z,1.80
2018-12-15T07:21:02.370Z,1.47
2018-12-15T07:23:31.674Z,1.50
2018-12-15T07:26:00.916Z,1.90
2018-12-15T07:28:29.914Z,1.57
2018-12-15T07:30:58.890Z,1.43
2018-12-15T07:33:28.086Z,1.77
2018-12-15T07:35:57.109Z,1.30
2018-12-15T07:38:26.134Z,1.27
2018-12-15T07:40:55.281Z,1.50
2018-12-15T07:43:24.604Z,1.60
2018-12-15T07:45:53.781Z,1.70
2018-12-15T07:48:23.174Z,1.83
2018-12-15T07:50:52.767Z,1.80
2018-12-15T07:53:22.157Z,2.00
2018-12-15T07:55:51.362Z,1.90
2018-12-15T07:58:21.112Z,1.47
2018-12-15T08:00:50.804Z,1.70
2018-12-15T08:03:19.999Z,1.70
2018-12-15T08:05:49.334Z,1.93
2018-12-15T08:08:18.908Z,1.57
2018-12-15T08:11:56.189Z,1.63
2018-12-15T08:14:25.876Z,1.60
2018-12-15T08:16:55.289Z,1.77
2018-12-15T08:19:24.616Z,1.80
2018-12-15T08:21:53.824Z,1.83
2018-12-15T08:24:23.100Z,1.77
2018-12-15T08:26:52.392Z,1.67
2018-12-15T08:29:22.540Z,1.23
2018-12-15T08:31:51.780Z,1.50
2018-12-15T08:34:20.886Z,1.47
2018-12-15T08:36:50.361Z,1.97
2018-12-15T08:39:19.583Z,1.70
2018-12-15T08:41:48.755Z,2.73
2018-12-15T08:44:17.784Z,1.83
2018-12-15T08:46:47.238Z,2.47
2018-12-15T08:49:16.840Z,1.80
2018-12-15T08:51:46.305Z,1.70
2018-12-15T08:54:15.756Z,2.00
2018-12-15T08:56:44.774Z,1.67
2018-12-15T08:59:13.869Z,1.83
2018-12-15T09:01:42.924Z,1.87
2018-12-15T09:04:11.954Z,1.87
2018-12-15T09:06:41.954Z,1.50
2018-12-15T09:09:10.867Z,1.93
2018-12-15T09:11:39.924Z,1.93
2018-12-15T09:14:09.227Z,1.70
2018-12-15T09:16:38.821Z,1.70
2018-12-15T09:19:11.297Z,1.50
2018-12-15T09:21:39.480Z,1.90
2018-12-15T09:24:09.557Z,1.73
2018-12-15T09:26:39.426Z,2.17
2018-12-15T09:29:08.858Z,1.90
2018-12-15T09:31:38.050Z,1.70
2018-12-15T09:34:07.497Z,1.67
2018-12-15T09:36:36.691Z,1.60
2018-12-15T09:39:08.109Z,1.90
2018-12-15T09:41:37.430Z,1.63
2018-12-15T09:44:07.500Z,1.97
2018-12-15T09:46:37.149Z,3.20
2018-12-15T09:49:06.113Z,1.83
2018-12-15T09:51:35.189Z,1.70
2018-12-15T09:54:04.632Z,1.80
2018-12-15T09:56:33.649Z,1.83
2018-12-15T09:59:02.669Z,2.03
2018-12-15T10:01:32.144Z,1.73
2018-12-15T10:04:01.142Z,1.90
2018-12-15T10:06:30.176Z,1.90
2018-12-15T10:08:59.088Z,1.93
2018-12-15T10:11:27.975Z,1.83
2018-12-15T10:13:57.488Z,2.00
2018-12-15T10:16:27.114Z,1.80
2018-12-15T10:18:56.161Z,2.00
2018-12-15T10:21:25.676Z,1.90
2018-12-15T10:23:54.717Z,1.73
2018-12-15T10:26:23.692Z,1.50
2018-12-15T10:28:53.156Z,2.10
2018-12-15T10:31:27.561Z,2.40
2018-12-15T10:33:57.011Z,2.13
2018-12-15T10:36:26.280Z,1.70
2018-12-15T10:38:55.402Z,1.63
2018-12-15T10:41:24.720Z,1.70
2018-12-15T10:43:53.785Z,1.50
2018-12-15T10:46:22.948Z,1.43
2018-12-15T10:48:52.379Z,1.43
2018-12-15T10:51:21.524Z,1.77
2018-12-15T10:53:50.576Z,1.90
2018-12-15T10:56:19.899Z,1.63
2018-12-15T10:58:49.091Z,1.47
2018-12-15T11:01:22.864Z,1.57
2018-12-15T11:03:52.111Z,1.20
2018-12-15T11:06:21.354Z,1.67
2018-12-15T11:08:50.995Z,2.10
2018-12-15T11:11:20.020Z,1.87
2018-12-15T11:13:49.140Z,1.90
2018-12-15T11:16:18.795Z,2.10
2018-12-15T11:18:48.257Z,2.13
2018-12-15T11:21:17.305Z,2.07
2018-12-15T11:23:46.718Z,1.90
2018-12-15T11:26:15.912Z,2.57
2018-12-15T11:28:45.253Z,1.90
2018-12-15T11:31:14.285Z,2.00
2018-12-15T11:33:43.622Z,1.67
2018-12-15T11:36:12.529Z,2.13
2018-12-15T11:38:42.078Z,1.50
2018-12-15T11:41:11.765Z,1.70
2018-12-15T11:43:41.275Z,2.50
2018-12-15T11:46:10.530Z,1.90
2018-12-15T11:48:39.654Z,2.47
2018-12-15T11:51:08.682Z,2.10
2018-12-15T11:53:38.058Z,2.47
2018-12-15T11:56:07.304Z,1.83
2018-12-15T11:58:37.017Z,7.80
2018-12-15T12:01:06.617Z,3.20
2018-12-15T12:03:35.626Z,2.93
2018-12-15T12:06:05.389Z,2.10
2018-12-15T12:08:34.511Z,2.43
2018-12-15T12:11:03.920Z,2.33
2018-12-15T12:13:33.388Z,2.83
2018-12-15T12:19:34.693Z,2.17
2018-12-15T12:22:03.814Z,2.03
2018-12-15T12:24:33.844Z,2.57
2018-12-15T12:27:03.107Z,3.87
2018-12-15T12:29:32.322Z,3.00
2018-12-15T12:32:01.399Z,3.17
2018-12-15T12:34:30.557Z,2.70
2018-12-15T12:36:59.771Z,2.80
2018-12-15T12:39:28.886Z,3.50
2018-12-15T12:41:58.014Z,2.37
2018-12-15T12:44:27.270Z,2.20
2018-12-15T12:46:56.797Z,2.30
2018-12-15T12:49:26.384Z,2.13
2018-12-15T12:51:55.401Z,2.73
2018-12-15T12:54:24.472Z,2.60
2018-12-15T12:56:53.666Z,2.83
2018-12-15T12:59:23.258Z,2.67
2018-12-15T13:01:52.293Z,2.23
2018-12-15T13:04:21.288Z,2.57
2018-12-15T13:06:51.410Z,2.57
2018-12-15T13:09:21.028Z,2.20
2018-12-15T13:11:50.241Z,2.53
2018-12-15T13:14:19.337Z,2.30
2018-12-15T13:16:48.951Z,2.00
2018-12-15T13:19:18.383Z,2.33
2018-12-15T13:21:47.434Z,2.30
2018-12-15T13:24:17.090Z,2.13
2018-12-15T13:26:46.578Z,2.40
2018-12-15T13:29:16.103Z,2.13
2018-12-15T13:31:45.274Z,2.93
2018-12-15T13:34:14.753Z,1.90
2018-12-15T13:36:44.080Z,2.37
2018-12-15T13:39:13.510Z,2.50
2018-12-15T13:41:42.732Z,2.50
2018-12-15T13:44:12.813Z,2.80
2018-12-15T13:46:41.880Z,2.37
2018-12-15T13:49:11.733Z,2.30
2018-12-15T13:51:41.409Z,3.83
2018-12-15T13:54:11.011Z,3.00
2018-12-15T13:56:40.597Z,2.70
2018-12-15T13:59:10.278Z,3.00
2018-12-15T14:01:40.534Z,3.80
2018-12-15T14:04:10.144Z,2.77
2018-12-15T14:06:40.517Z,3.40
2018-12-15T14:09:10.371Z,3.70
2018-12-15T14:11:39.756Z,3.40
2018-12-15T14:14:10.381Z,3.37
2018-12-15T14:16:40.107Z,2.80
2018-12-15T14:19:09.657Z,3.27
2018-12-15T14:21:39.931Z,2.90
2018-12-15T14:24:10.120Z,3.10
2018-12-15T14:26:40.111Z,3.30
2018-12-15T14:29:09.719Z,2.70
2018-12-15T14:31:39.184Z,3.90
2018-12-15T14:34:08.661Z,3.47
2018-12-15T14:36:38.652Z,3.50
2018-12-15T14:39:08.685Z,3.97
2018-12-15T14:41:38.611Z,4.57
2018-12-15T14:44:08.722Z,3.97
2018-12-15T14:46:38.628Z,4.50
2018-12-15T14:49:08.520Z,4.72
2018-12-15T14:51:38.364Z,3.63
2018-12-15T14:54:08.117Z,3.33
2018-12-15T14:56:37.387Z,3.80
2018-12-15T14:59:07.008Z,3.40
2018-12-15T15:01:36.985Z,3.10
2018-12-15T15:04:06.003Z,4.10
2018-12-15T15:06:35.284Z,3.40
2018-12-15T15:09:07.445Z,3.77
2018-12-15T15:11:36.973Z,4.00
2018-12-15T15:14:06.151Z,3.97
2018-12-15T15:16:35.758Z,3.77
2018-12-15T15:19:06.487Z,3.70
2018-12-15T15:21:35.789Z,3.63
2018-12-15T15:24:05.249Z,3.17
2018-12-15T15:26:36.190Z,3.50
2018-12-15T15:29:06.196Z,3.20
2018-12-15T15:31:35.694Z,3.30
2018-12-15T15:34:05.348Z,3.50
2018-12-15T15:36:35.093Z,3.50
2018-12-15T15:39:05.891Z,3.50
2018-12-15T15:41:35.427Z,3.80
2018-12-15T15:44:05.187Z,3.15
2018-12-15T15:46:34.504Z,4.10
2018-12-15T15:49:04.163Z,3.80
2018-12-15T15:51:33.660Z,4.53
2018-12-15T15:54:02.813Z,4.63
2018-12-15T15:56:32.418Z,4.20
2018-12-15T15:59:01.669Z,4.70
2018-12-15T16:01:31.212Z,5.53
2018-12-15T16:04:00.933Z,5.00
2018-12-15T16:06:30.645Z,4.27
2018-12-15T16:09:00.273Z,4.63
2018-12-15T16:11:32.419Z,4.03
2018-12-15T16:14:01.530Z,3.53
2018-12-15T16:16:37.283Z,3.50
2018-12-15T16:19:06.751Z,4.83
2018-12-15T16:21:36.843Z,3.65
2018-12-15T16:24:08.549Z,4.13
2018-12-15T16:26:37.925Z,4.00
2018-12-15T16:29:07.582Z,3.87
2018-12-15T16:31:37.568Z,4.47
2018-12-15T16:34:07.389Z,5.27
2018-12-15T16:36:36.477Z,4.97
2018-12-15T16:39:08.413Z,5.20
2018-12-15T16:41:42.244Z,5.80
2018-12-15T16:44:08.938Z,5.00
2018-12-15T16:46:38.692Z,4.30
2018-12-15T16:49:08.022Z,4.60
2018-12-15T16:51:37.994Z,4.43
2018-12-15T16:54:07.947Z,5.13
2018-12-15T16:56:37.404Z,5.17
2018-12-15T16:59:06.682Z,5.57
2018-12-15T17:01:36.546Z,4.87
2018-12-15T17:04:06.204Z,4.27
2018-12-15T17:06:35.944Z,4.67
2018-12-15T17:09:09.420Z,5.00
2018-12-15T17:11:38.628Z,4.57
2018-12-15T17:14:08.450Z,4.57
2018-12-15T17:16:38.338Z,5.27
2018-12-15T17:19:07.824Z,4.80
2018-12-15T17:21:37.015Z,4.20
2018-12-15T17:24:07.008Z,4.83
2018-12-15T17:26:36.580Z,5.80
2018-12-15T17:29:06.222Z,4.70
2018-12-15T17:31:35.908Z,4.47
2018-12-15T17:34:06.178Z,4.43
2018-12-15T17:36:35.296Z,4.20
2018-12-15T17:39:06.412Z,5.50
2018-12-15T17:41:35.884Z,4.37
2018-12-15T17:44:05.127Z,3.93
2018-12-15T17:46:34.887Z,4.13
2018-12-15T17:49:03.971Z,4.00
2018-12-15T17:51:32.909Z,4.13
2018-12-15T17:54:02.272Z,4.00
2018-12-15T17:56:31.305Z,4.60
2018-12-15T17:59:00.539Z,4.00
2018-12-15T18:01:30.526Z,4.28
2018-12-15T18:04:00.040Z,3.50
2018-12-15T18:06:29.289Z,4.30
2018-12-15T18:08:58.694Z,5.53
2018-12-15T18:11:27.584Z,4.03
2018-12-15T18:13:57.083Z,4.92
2018-12-15T18:16:26.299Z,4.70
2018-12-15T18:18:56.093Z,4.40
2018-12-15T18:21:25.961Z,3.30
2018-12-15T18:23:55.178Z,4.13
2018-12-15T18:26:24.251Z,4.57
2018-12-15T18:28:53.942Z,4.60
2018-12-15T18:31:23.555Z,4.43
2018-12-15T18:33:53.756Z,5.30
2018-12-15T18:36:23.408Z,4.10
2018-12-15T18:38:52.854Z,5.07
2018-12-15T18:41:22.114Z,3.87
2018-12-15T18:43:51.110Z,4.90
2018-12-15T18:46:20.490Z,4.67
2018-12-15T18:48:49.804Z,4.27
2018-12-15T18:51:19.237Z,4.40
2018-12-15T18:53:48.856Z,3.87
2018-12-15T18:56:18.006Z,4.33
2018-12-15T18:58:46.983Z,5.00
2018-12-15T19:01:16.540Z,4.23
2018-12-15T19:03:45.538Z,4.40
2018-12-15T19:06:15.072Z,4.30
2018-12-15T19:08:44.768Z,5.47
2018-12-15T19:11:14.307Z,4.80
2018-12-15T19:13:44.350Z,4.53
2018-12-15T19:16:14.362Z,4.80
2018-12-15T19:18:43.738Z,3.90
2018-12-15T19:21:13.409Z,3.80
2018-12-15T19:23:43.080Z,4.00
2018-12-15T19:26:12.007Z,3.85
2018-12-15T19:28:41.415Z,3.87
2018-12-15T19:31:10.961Z,4.12
2018-12-15T19:33:40.461Z,4.30
2018-12-15T19:36:10.115Z,5.37
2018-12-15T19:38:39.879Z,4.87
2018-12-15T19:41:09.212Z,5.97
2018-12-15T19:43:38.472Z,4.30
2018-12-15T19:46:08.366Z,5.00
2018-12-15T19:48:37.922Z,4.80
2018-12-15T19:51:07.276Z,4.50
2018-12-15T19:53:36.847Z,3.70
2018-12-15T19:56:06.356Z,4.70
2018-12-15T19:58:35.614Z,4.67
2018-12-15T20:01:05.225Z,6.20
2018-12-15T20:03:34.809Z,5.22
2018-12-15T20:06:04.103Z,4.00
2018-12-15T20:08:33.676Z,4.33
2018-12-15T20:11:03.119Z,4.63
2018-12-15T20:13:33.036Z,4.00
2018-12-15T20:16:02.586Z,4.23
2018-12-15T20:18:32.257Z,4.30
2018-12-15T20:21:01.941Z,3.97
2018-12-15T20:23:31.822Z,4.90
2018-12-15T20:26:01.324Z,4.07
2018-12-15T20:28:30.734Z,4.57
2018-12-15T20:31:00.017Z,4.20
2018-12-15T20:33:29.358Z,4.40
2018-12-15T20:35:59.125Z,4.20
2018-12-15T20:38:28.746Z,4.47
2018-12-15T20:40:58.098Z,5.10
2018-12-15T20:43:27.572Z,4.77
2018-12-15T20:45:56.936Z,3.90
2018-12-15T20:48:26.174Z,4.20
2018-12-15T20:50:55.583Z,4.10
2018-12-15T20:53:24.850Z,4.80
2018-12-15T20:55:54.505Z,4.17
2018-12-15T20:58:24.453Z,4.33
2018-12-15T21:00:54.013Z,3.67
2018-12-15T21:03:23.234Z,4.30
2018-12-15T21:05:52.458Z,4.20
2018-12-15T21:08:22.525Z,4.27
2018-12-15T21:10:51.862Z,4.13
2018-12-15T21:13:21.293Z,3.65
2018-12-15T21:15:53.618Z,3.23
2018-12-15T21:18:23.510Z,2.83
2018-12-15T21:20:52.424Z,3.23
2018-12-15T21:23:22.223Z,3.90
2018-12-15T21:25:51.516Z,3.77
2018-12-15T21:28:20.809Z,3.80
2018-12-15T21:30:50.160Z,4.10
2018-12-15T21:33:19.684Z,3.20
2018-12-15T21:35:49.029Z,4.00
2018-12-15T21:38:18.570Z,3.53
2018-12-15T21:40:47.795Z,3.80
2018-12-15T21:43:17.134Z,3.80
2018-12-15T21:45:46.743Z,3.90
2018-12-15T21:48:16.247Z,20.20
2018-12-15T21:50:45.401Z,20.03
2018-12-15T21:53:15.119Z,10.23
2018-12-15T21:55:44.389Z,8.77
2018-12-15T21:58:13.463Z,4.63
2018-12-15T22:00:42.895Z,4.50
2018-12-15T22:03:12.194Z,4.97
2018-12-15T22:05:41.480Z,3.27
2018-12-15T22:08:10.837Z,3.90
2018-12-15T22:10:39.983Z,3.83
2018-12-15T22:13:09.148Z,3.47
2018-12-15T22:15:39.063Z,2.97
2018-12-15T22:18:08.406Z,3.30
2018-12-15T22:20:38.010Z,3.20
2018-12-15T22:23:07.863Z,3.17
2018-12-15T22:25:37.346Z,3.20
2018-12-15T22:28:06.714Z,3.70
2018-12-15T22:30:36.259Z,3.23
2018-12-15T22:33:05.914Z,2.97
2018-12-15T22:35:35.305Z,3.43
2018-12-15T22:38:04.841Z,3.27
2018-12-15T22:40:34.212Z,3.33
2018-12-15T22:43:03.452Z,3.30
2018-12-15T22:45:33.125Z,3.27
2018-12-15T22:48:02.247Z,3.20
2018-12-15T22:50:31.486Z,3.27
2018-12-15T22:53:00.992Z,3.50
2018-12-15T22:55:30.200Z,3.33
2018-12-15T22:57:59.530Z,3.30
2018-12-15T23:00:31.273Z,3.10
2018-12-15T23:03:00.579Z,3.50
2018-12-15T23:05:29.917Z,3.43
2018-12-15T23:07:59.656Z,2.37
2018-12-15T23:10:28.912Z,2.77
2018-12-15T23:12:58.494Z,2.97
2018-12-15T23:15:27.904Z,3.20
2018-12-15T23:17:57.224Z,3.03
2018-12-15T23:20:27.350Z,2.90
2018-12-15T23:22:57.026Z,3.23
2018-12-15T23:25:26.511Z,3.60
2018-12-15T23:27:55.804Z,3.47
2018-12-15T23:30:25.253Z,2.77
2018-12-15T23:32:54.564Z,2.90
2018-12-15T23:35:24.396Z,3.58
2018-12-15T23:37:54.030Z,3.08
2018-12-15T23:40:23.189Z,3.07
2018-12-15T23:42:52.410Z,3.50
2018-12-15T23:45:22.256Z,3.10
2018-12-15T23:47:51.570Z,3.17
2018-12-15T23:50:20.849Z,3.00
2018-12-15T23:52:50.204Z,3.20
2018-12-15T23:55:20.878Z,3.00
2018-12-15T23:57:50.607Z,3.20
